createdAt,value
2018-08-28T00:00:33.681Z,17.36
2018-08-28T00:01:33.114Z,17.36
2018-08-28T00:02:33.632Z,17.41
2018-08-28T00:03:33.613Z,17.36
2018-08-28T00:04:33.071Z,17.36
2018-08-28T00:05:33.322Z,17.48
2018-08-28T00:06:33.562Z,17.33
2018-08-28T00:07:33.304Z,17.4
2018-08-28T00:08:33.290Z,17.36
2018-08-28T00:09:33.548Z,17.36
2018-08-28T00:10:33.364Z,17.33
2018-08-28T00:11:33.513Z,17.38
2018-08-28T00:12:33.549Z,17.35
2018-08-28T00:13:33.218Z,17.36
2018-08-28T00:14:33.214Z,17.35
2018-08-28T00:15:33.202Z,17.41
2018-08-28T00:16:33.186Z,17.43
2018-08-28T00:17:33.171Z,17.35
2018-08-28T00:18:32.892Z,17.33
2018-08-28T00:19:33.144Z,17.48
2018-08-28T00:20:33.179Z,17.46
2018-08-28T00:21:32.864Z,17.46
2018-08-28T00:22:33.122Z,17.5
2018-08-28T00:23:33.152Z,17.4
2018-08-28T00:24:33.355Z,17.38
2018-08-28T00:25:33.080Z,17.54
2018-08-28T00:26:33.077Z,17.43
2018-08-28T00:27:33.058Z,17.51
2018-08-28T00:28:33.315Z,17.43
2018-08-28T00:29:33.305Z,17.51
2018-08-28T00:30:33.300Z,17.48
2018-08-28T00:31:33.281Z,17.48
2018-08-28T00:32:33.265Z,17.47
2018-08-28T00:33:32.714Z,17.48
2018-08-28T00:34:33.243Z,17.47
2018-08-28T00:35:33.227Z,17.47
2018-08-28T00:36:33.216Z,17.5
2018-08-28T00:37:32.959Z,17.38
2018-08-28T00:38:32.925Z,17.35
2018-08-28T00:39:32.922Z,17.4
2018-08-28T00:40:33.169Z,17.53
2018-08-28T00:41:33.148Z,17.44
2018-08-28T00:42:33.141Z,17.51
2018-08-28T00:43:32.606Z,17.44
2018-08-28T00:44:33.112Z,17.5
2018-08-28T00:45:32.842Z,17.46
2018-08-28T00:46:32.569Z,17.53
2018-08-28T00:47:32.811Z,17.48
2018-08-28T00:48:33.066Z,17.47
2018-08-28T00:49:32.806Z,17.46
2018-08-28T00:50:33.036Z,17.48
2018-08-28T00:51:32.764Z,17.51
2018-08-28T00:52:32.869Z,17.5
2018-08-28T00:53:32.751Z,17.48
2018-08-28T00:54:33.004Z,17.5
2018-08-28T00:55:32.456Z,17.5
2018-08-28T00:56:32.724Z,17.46
2018-08-28T00:57:32.692Z,17.48
2018-08-28T00:58:32.674Z,17.55
2018-08-28T00:59:32.684Z,17.41
2018-08-28T01:00:32.397Z,17.48
2018-08-28T01:01:33.045Z,17.54
2018-08-28T01:02:32.897Z,17.51
2018-08-28T01:03:32.623Z,17.47
2018-08-28T01:04:32.604Z,17.53
2018-08-28T01:05:32.597Z,17.41
2018-08-28T01:06:32.585Z,17.38
2018-08-28T01:07:32.567Z,17.5
2018-08-28T01:08:32.290Z,17.38
2018-08-28T01:09:32.548Z,17.41
2018-08-28T01:10:32.852Z,17.5
2018-08-28T01:11:32.515Z,17.41
2018-08-28T01:12:32.792Z,17.5
2018-08-28T01:13:32.505Z,17.47
2018-08-28T01:14:32.914Z,17.48
2018-08-28T01:15:32.475Z,17.47
2018-08-28T01:16:32.455Z,17.55
2018-08-28T01:17:32.719Z,17.5
2018-08-28T01:18:32.705Z,17.5
2018-08-28T01:19:32.419Z,17.46
2018-08-28T01:20:32.677Z,17.48
2018-08-28T01:21:32.658Z,17.5
2018-08-28T01:22:32.118Z,17.53
2018-08-28T01:23:32.641Z,17.54
2018-08-28T01:24:32.636Z,17.53
2018-08-28T01:25:32.620Z,17.48
2018-08-28T01:26:32.618Z,17.48
2018-08-28T01:27:32.592Z,17.5
2018-08-28T01:28:32.621Z,17.48
2018-08-28T01:29:32.567Z,17.46
2018-08-28T01:30:32.551Z,17.48
2018-08-28T01:31:32.542Z,17.53
2018-08-28T01:32:32.524Z,17.54
2018-08-28T01:33:32.255Z,17.47
2018-08-28T01:34:32.510Z,17.47
2018-08-28T01:35:32.229Z,17.54
2018-08-28T01:36:31.961Z,17.54
2018-08-28T01:37:32.218Z,17.48
2018-08-28T01:38:32.197Z,17.5
2018-08-28T01:39:32.182Z,17.44
2018-08-28T01:40:32.441Z,17.51
2018-08-28T01:41:32.414Z,17.54
2018-08-28T01:42:32.161Z,17.54
2018-08-28T01:43:32.401Z,17.5
2018-08-28T01:44:31.864Z,17.5
2018-08-28T01:45:32.117Z,17.51
2018-08-28T01:46:32.099Z,17.48
2018-08-28T01:47:32.347Z,17.43
2018-08-28T01:48:32.350Z,17.47
2018-08-28T01:49:32.066Z,17.53
2018-08-28T01:50:32.042Z,17.5
2018-08-28T01:51:32.298Z,17.48
2018-08-28T01:52:31.757Z,17.47
2018-08-28T01:53:31.756Z,17.5
2018-08-28T01:54:32.005Z,17.47
2018-08-28T01:55:31.986Z,17.5
2018-08-28T01:56:31.982Z,17.4
2018-08-28T01:57:32.231Z,17.53
2018-08-28T01:58:31.959Z,17.46
2018-08-28T01:59:32.206Z,17.5
2018-08-28T02:00:32.199Z,17.53
2018-08-28T02:01:31.651Z,17.38
2018-08-28T02:02:31.899Z,17.48
2018-08-28T02:03:32.152Z,17.41
2018-08-28T02:04:31.875Z,17.33
2018-08-28T02:05:31.873Z,17.35
2018-08-28T02:06:32.130Z,17.5
2018-08-28T02:07:31.844Z,17.38
2018-08-28T02:08:31.826Z,17.38
2018-08-28T02:09:32.087Z,17.4
2018-08-28T02:10:32.082Z,17.4
2018-08-28T02:11:31.840Z,17.41
2018-08-28T02:12:32.044Z,17.4
2018-08-28T02:13:32.064Z,17.36
2018-08-28T02:14:31.765Z,17.38
2018-08-28T02:15:31.798Z,17.41
2018-08-28T02:16:32.002Z,17.4
2018-08-28T02:17:32.031Z,17.38
2018-08-28T02:18:31.978Z,17.38
2018-08-28T02:19:31.948Z,17.33
2018-08-28T02:20:31.688Z,17.36
2018-08-28T02:21:31.956Z,17.32
2018-08-28T02:22:31.401Z,17.26
2018-08-28T02:23:31.915Z,17.28
2018-08-28T02:24:31.915Z,17.33
2018-08-28T02:25:31.890Z,17.29
2018-08-28T02:26:31.608Z,17.29
2018-08-28T02:27:31.593Z,17.3
2018-08-28T02:28:31.853Z,17.33
2018-08-28T02:29:31.629Z,17.28
2018-08-28T02:30:31.561Z,17.32
2018-08-28T02:31:31.806Z,17.28
2018-08-28T02:32:31.544Z,17.32
2018-08-28T02:33:31.330Z,17.23
2018-08-28T02:34:31.504Z,17.26
2018-08-28T02:35:31.238Z,17.29
2018-08-28T02:36:31.490Z,17.26
2018-08-28T02:37:31.479Z,17.23
2018-08-28T02:38:31.475Z,17.23
2018-08-28T02:39:31.722Z,17.22
2018-08-28T02:40:31.717Z,17.28
2018-08-28T02:41:31.434Z,17.26
2018-08-28T02:42:31.426Z,17.26
2018-08-28T02:43:31.419Z,17.22
2018-08-28T02:44:31.666Z,17.25
2018-08-28T02:45:31.386Z,17.23
2018-08-28T02:46:31.620Z,17.26
2018-08-28T02:47:31.355Z,17.23
2018-08-28T02:48:31.611Z,17.22
2018-08-28T02:49:31.332Z,17.18
2018-08-28T02:50:31.051Z,17.26
2018-08-28T02:51:31.311Z,17.26
2018-08-28T02:52:31.283Z,17.17
2018-08-28T02:53:31.273Z,17.22
2018-08-28T02:54:31.526Z,17.26
2018-08-28T02:55:31.261Z,17.25
2018-08-28T02:56:30.981Z,17.2
2018-08-28T02:57:31.499Z,17.22
2018-08-28T02:58:31.210Z,17.17
2018-08-28T02:59:31.469Z,17.22
2018-08-28T03:00:30.929Z,17.18
2018-08-28T03:01:31.188Z,17.22
2018-08-28T03:02:31.205Z,17.18
2018-08-28T03:03:31.155Z,17.18
2018-08-28T03:04:31.414Z,17.22
2018-08-28T03:05:31.397Z,17.22
2018-08-28T03:06:31.127Z,17.2
2018-08-28T03:07:31.413Z,17.22
2018-08-28T03:08:31.115Z,17.23
2018-08-28T03:09:31.349Z,17.26
2018-08-28T03:10:31.080Z,17.18
2018-08-28T03:11:31.164Z,17.25
2018-08-28T03:12:31.318Z,17.25
2018-08-28T03:13:30.770Z,17.23
2018-08-28T03:14:31.291Z,17.25
2018-08-28T03:15:31.093Z,17.22
2018-08-28T03:16:31.264Z,17.22
2018-08-28T03:17:31.246Z,17.18
2018-08-28T03:18:30.967Z,17.23
2018-08-28T03:19:30.962Z,17.23
2018-08-28T03:20:31.212Z,17.23
2018-08-28T03:21:31.204Z,17.28
2018-08-28T03:22:30.668Z,17.2
2018-08-28T03:23:31.185Z,17.23
2018-08-28T03:24:30.929Z,17.25
2018-08-28T03:25:30.897Z,17.2
2018-08-28T03:26:31.146Z,17.22
2018-08-28T03:27:31.146Z,17.25
2018-08-28T03:28:30.870Z,17.26
2018-08-28T03:29:30.858Z,17.23
2018-08-28T03:30:31.114Z,17.29
2018-08-28T03:31:31.097Z,17.23
2018-08-28T03:32:31.094Z,17.25
2018-08-28T03:33:31.081Z,17.22
2018-08-28T03:34:31.047Z,17.22
2018-08-28T03:35:31.039Z,17.22
2018-08-28T03:36:30.762Z,17.23
2018-08-28T03:37:30.747Z,17.23
2018-08-28T03:38:30.731Z,17.2
2018-08-28T03:39:30.721Z,17.2
2018-08-28T03:40:30.447Z,17.2
2018-08-28T03:41:30.959Z,17.17
2018-08-28T03:42:30.950Z,17.25
2018-08-28T03:43:30.410Z,17.18
2018-08-28T03:44:30.405Z,17.22
2018-08-28T03:45:30.915Z,17.18
2018-08-28T03:46:30.628Z,17.18
2018-08-28T03:47:30.354Z,17.22
2018-08-28T03:48:30.603Z,17.26
2018-08-28T03:49:30.604Z,17.26
2018-08-28T03:50:30.606Z,17.23
2018-08-28T03:51:30.583Z,17.23
2018-08-28T03:52:30.567Z,17.23
2018-08-28T03:53:30.547Z,17.26
2018-08-28T03:54:30.528Z,17.23
2018-08-28T03:55:31.057Z,17.23
2018-08-28T03:56:30.785Z,17.26
2018-08-28T03:57:30.777Z,17.22
2018-08-28T03:58:30.247Z,17.2
2018-08-28T03:59:30.752Z,17.26
2018-08-28T04:00:30.456Z,17.25
2018-08-28T04:01:30.710Z,17.23
2018-08-28T04:02:30.456Z,17.26
2018-08-28T04:03:30.498Z,17.23
2018-08-28T04:04:30.143Z,17.26
2018-08-28T04:05:30.398Z,17.23
2018-08-28T04:06:30.396Z,17.22
2018-08-28T04:07:30.647Z,17.22
2018-08-28T04:08:30.639Z,17.26
2018-08-28T04:09:30.615Z,17.2
2018-08-28T04:10:30.351Z,17.17
2018-08-28T04:11:30.072Z,17.18
2018-08-28T04:12:30.312Z,17.23
2018-08-28T04:13:30.572Z,17.22
2018-08-28T04:14:30.029Z,17.22
2018-08-28T04:15:30.554Z,17.2
2018-08-28T04:16:30.279Z,17.2
2018-08-28T04:17:30.246Z,17.25
2018-08-28T04:18:29.973Z,17.15
2018-08-28T04:19:30.488Z,17.22
2018-08-28T04:20:30.220Z,17.17
2018-08-28T04:21:30.195Z,17.17
2018-08-28T04:22:29.931Z,17.23
2018-08-28T04:23:30.434Z,17.2
2018-08-28T04:24:30.437Z,17.2
2018-08-28T04:25:30.151Z,17.17
2018-08-28T04:26:30.413Z,17.15
2018-08-28T04:27:30.393Z,17.13
2018-08-28T04:28:30.116Z,17.14
2018-08-28T04:29:30.103Z,17.13
2018-08-28T04:30:30.554Z,17.13
2018-08-28T04:31:30.084Z,17.14
2018-08-28T04:32:30.066Z,17.11
2018-08-28T04:33:30.325Z,17.14
2018-08-28T04:34:30.312Z,17.15
2018-08-28T04:35:30.035Z,17.11
2018-08-28T04:36:30.279Z,17.15
2018-08-28T04:37:29.742Z,17.15
2018-08-28T04:38:30.268Z,17.11
2018-08-28T04:39:30.247Z,17.13
2018-08-28T04:40:29.964Z,17.13
2018-08-28T04:41:29.951Z,17.08
2018-08-28T04:42:29.674Z,17.07
2018-08-28T04:43:30.198Z,17.08
2018-08-28T04:44:29.914Z,17.13
2018-08-28T04:45:29.647Z,17.11
2018-08-28T04:46:29.683Z,17.08
2018-08-28T04:47:30.152Z,17.13
2018-08-28T04:48:30.299Z,17.07
2018-08-28T04:49:30.134Z,17.14
2018-08-28T04:50:29.851Z,17.15
2018-08-28T04:51:29.574Z,17.14
2018-08-28T04:52:29.821Z,17.11
2018-08-28T04:53:29.826Z,17.15
2018-08-28T04:54:29.816Z,17.11
2018-08-28T04:55:30.055Z,17.14
2018-08-28T04:56:29.507Z,17.11
2018-08-28T04:57:30.027Z,17.13
2018-08-28T04:58:30.013Z,17.17
2018-08-28T04:59:29.734Z,17.13
2018-08-28T05:00:29.724Z,17.18
2018-08-28T05:01:29.711Z,17.07
2018-08-28T05:02:29.915Z,17.13
2018-08-28T05:03:29.431Z,17.13
2018-08-28T05:04:29.680Z,17.11
2018-08-28T05:05:29.666Z,17.23
2018-08-28T05:06:29.931Z,17.15
2018-08-28T05:07:29.908Z,17.18
2018-08-28T05:08:29.637Z,17.18
2018-08-28T05:09:29.617Z,17.22
2018-08-28T05:10:29.867Z,17.23
2018-08-28T05:11:29.671Z,17.15
2018-08-28T05:12:29.581Z,17.25
2018-08-28T05:13:29.563Z,17.23
2018-08-28T05:14:29.561Z,17.2
2018-08-28T05:15:29.538Z,17.2
2018-08-28T05:16:29.258Z,17.17
2018-08-28T05:17:29.261Z,17.22
2018-08-28T05:18:29.776Z,17.2
2018-08-28T05:19:29.806Z,17.25
2018-08-28T05:20:29.478Z,17.32
2018-08-28T05:21:29.777Z,17.28
2018-08-28T05:22:29.721Z,17.26
2018-08-28T05:23:29.436Z,17.26
2018-08-28T05:24:29.427Z,17.23
2018-08-28T05:25:29.425Z,17.29
2018-08-28T05:26:29.676Z,17.29
2018-08-28T05:27:29.664Z,17.23
2018-08-28T05:28:29.110Z,17.3
2018-08-28T05:29:29.119Z,17.3
2018-08-28T05:30:29.890Z,17.33
2018-08-28T05:31:29.390Z,17.29
2018-08-28T05:32:29.607Z,17.33
2018-08-28T05:33:29.586Z,17.33
2018-08-28T05:34:29.309Z,17.32
2018-08-28T05:35:29.570Z,17.32
2018-08-28T05:36:29.287Z,17.36
2018-08-28T05:37:28.999Z,17.38
2018-08-28T05:38:28.997Z,17.36
2018-08-28T05:39:29.251Z,17.41
2018-08-28T05:40:29.509Z,17.46
2018-08-28T05:41:29.216Z,17.51
2018-08-28T05:42:29.477Z,17.44
2018-08-28T05:43:29.457Z,17.5
2018-08-28T05:44:29.446Z,17.41
2018-08-28T05:45:29.451Z,17.47
2018-08-28T05:46:29.422Z,17.55
2018-08-28T05:47:29.155Z,17.53
2018-08-28T05:48:29.150Z,17.38
2018-08-28T05:49:29.539Z,17.54
2018-08-28T05:50:29.115Z,17.47
2018-08-28T05:51:29.355Z,17.44
2018-08-28T05:52:29.090Z,17.5
2018-08-28T05:53:29.074Z,17.55
2018-08-28T05:54:28.794Z,17.54
2018-08-28T05:55:29.313Z,17.51
2018-08-28T05:56:29.296Z,17.5
2018-08-28T05:57:29.345Z,17.57
2018-08-28T05:58:29.290Z,17.66
2018-08-28T05:59:29.008Z,17.55
2018-08-28T06:00:28.729Z,17.59
2018-08-28T06:01:28.975Z,17.59
2018-08-28T06:02:29.233Z,17.67
2018-08-28T06:03:29.998Z,17.67
2018-08-28T06:04:28.673Z,17.59
2018-08-28T06:05:29.196Z,17.66
2018-08-28T06:06:29.194Z,17.73
2018-08-28T06:07:28.917Z,17.66
2018-08-28T06:08:29.182Z,17.71
2018-08-28T06:09:28.886Z,17.7
2018-08-28T06:10:28.884Z,17.81
2018-08-28T06:11:29.117Z,17.81
2018-08-28T06:12:29.118Z,17.71
2018-08-28T06:13:29.111Z,17.78
2018-08-28T06:14:28.825Z,17.79
2018-08-28T06:15:29.080Z,17.85
2018-08-28T06:16:29.125Z,17.84
2018-08-28T06:17:28.813Z,17.95
2018-08-28T06:18:29.046Z,17.87
2018-08-28T06:19:28.771Z,17.89
2018-08-28T06:20:28.763Z,17.88
2018-08-28T06:21:28.736Z,17.95
2018-08-28T06:22:28.722Z,18.03
2018-08-28T06:23:28.711Z,17.95
2018-08-28T06:24:28.441Z,18
2018-08-28T06:25:28.706Z,17.95
2018-08-28T06:26:29.252Z,17.94
2018-08-28T06:27:28.665Z,18.06
2018-08-28T06:28:28.919Z,17.94
2018-08-28T06:29:28.679Z,18.1
2018-08-28T06:30:28.627Z,18.07
2018-08-28T06:31:28.892Z,18.1
2018-08-28T06:32:28.879Z,18.06
2018-08-28T06:33:28.598Z,18.07
2018-08-28T06:34:28.850Z,18.09
2018-08-28T06:35:28.580Z,18.17
2018-08-28T06:36:28.573Z,18.1
2018-08-28T06:37:28.777Z,18.18
2018-08-28T06:38:28.547Z,18.21
2018-08-28T06:39:28.802Z,18.21
2018-08-28T06:40:28.509Z,18.21
2018-08-28T06:41:28.784Z,18.25
2018-08-28T06:42:28.529Z,18.29
2018-08-28T06:43:28.582Z,18.24
2018-08-28T06:44:28.740Z,18.27
2018-08-28T06:45:28.739Z,18.36
2018-08-28T06:46:28.730Z,18.37
2018-08-28T06:47:28.707Z,18.37
2018-08-28T06:48:28.700Z,18.36
2018-08-28T06:49:28.541Z,18.43
2018-08-28T06:50:28.142Z,18.42
2018-08-28T06:51:28.403Z,18.5
2018-08-28T06:52:28.121Z,18.5
2018-08-28T06:53:28.620Z,18.47
2018-08-28T06:54:28.360Z,18.52
2018-08-28T06:55:28.351Z,18.57
2018-08-28T06:56:28.624Z,18.52
2018-08-28T06:57:28.052Z,18.52
2018-08-28T06:58:28.319Z,18.49
2018-08-28T06:59:28.561Z,18.4
2018-08-28T07:00:28.305Z,18.39
2018-08-28T07:01:28.542Z,18.43
2018-08-28T07:02:28.645Z,18.36
2018-08-28T07:03:27.979Z,18.52
2018-08-28T07:04:28.507Z,18.59
2018-08-28T07:05:28.491Z,18.61
2018-08-28T07:06:28.214Z,18.57
2018-08-28T07:07:28.215Z,18.54
2018-08-28T07:08:28.459Z,18.49
2018-08-28T07:09:27.920Z,18.59
2018-08-28T07:10:27.911Z,18.64
2018-08-28T07:11:28.205Z,18.57
2018-08-28T07:12:28.150Z,18.62
2018-08-28T07:13:28.402Z,18.68
2018-08-28T07:14:28.119Z,18.72
2018-08-28T07:15:28.467Z,18.76
2018-08-28T07:16:28.038Z,18.74
2018-08-28T07:17:28.084Z,18.72
2018-08-28T07:18:28.356Z,18.77
2018-08-28T07:19:28.073Z,18.83
2018-08-28T07:20:28.328Z,18.83
2018-08-28T07:21:28.042Z,18.87
2018-08-28T07:22:28.336Z,18.92
2018-08-28T07:23:28.028Z,18.87
2018-08-28T07:24:28.283Z,18.77
2018-08-28T07:25:28.052Z,18.91
2018-08-28T07:26:28.002Z,18.98
2018-08-28T07:27:27.984Z,18.99
2018-08-28T07:28:28.239Z,18.94
2018-08-28T07:29:27.961Z,19.06
2018-08-28T07:30:27.689Z,18.97
2018-08-28T07:31:28.637Z,19.02
2018-08-28T07:32:27.939Z,19.13
2018-08-28T07:33:28.191Z,19.06
2018-08-28T07:34:28.175Z,19.13
2018-08-28T07:35:27.640Z,19.17
2018-08-28T07:36:27.882Z,19.23
2018-08-28T07:37:28.046Z,19.23
2018-08-28T07:38:27.872Z,19.33
2018-08-28T07:39:28.112Z,19.36
2018-08-28T07:40:27.581Z,19.29
2018-08-28T07:41:27.834Z,19.32
2018-08-28T07:42:28.385Z,19.36
2018-08-28T07:43:27.803Z,19.33
2018-08-28T07:44:27.805Z,19.36
2018-08-28T07:45:27.782Z,19.31
2018-08-28T07:46:27.771Z,19.32
2018-08-28T07:47:27.512Z,19.35
2018-08-28T07:48:28.242Z,19.31
2018-08-28T07:49:28.025Z,19.35
2018-08-28T07:50:27.726Z,19.35
2018-08-28T07:51:27.985Z,19.47
2018-08-28T07:52:27.986Z,19.4
2018-08-28T07:53:27.446Z,19.5
2018-08-28T07:54:27.691Z,19.5
2018-08-28T07:55:27.680Z,19.47
2018-08-28T07:56:27.943Z,19.55
2018-08-28T07:57:27.390Z,19.51
2018-08-28T07:58:27.378Z,19.54
2018-08-28T07:59:27.636Z,19.63
2018-08-28T08:00:27.640Z,19.66
2018-08-28T08:01:28.181Z,19.66
2018-08-28T08:02:27.872Z,19.69
2018-08-28T08:03:27.858Z,19.66
2018-08-28T08:04:27.846Z,19.61
2018-08-28T08:05:27.569Z,19.73
2018-08-28T08:06:27.846Z,19.7
2018-08-28T08:07:27.560Z,19.79
2018-08-28T08:08:27.282Z,19.73
2018-08-28T08:09:27.809Z,19.78
2018-08-28T08:10:27.374Z,19.95
2018-08-28T08:11:27.820Z,19.95
2018-08-28T08:12:27.506Z,19.97
2018-08-28T08:13:27.489Z,20.09
2018-08-28T08:14:27.764Z,20.13
2018-08-28T08:15:27.763Z,20.21
2018-08-28T08:16:27.733Z,20.3
2018-08-28T08:17:27.462Z,20.33
2018-08-28T08:18:27.445Z,20.38
2018-08-28T08:19:27.429Z,20.46
2018-08-28T08:20:27.694Z,20.43
2018-08-28T08:21:27.159Z,20.49
2018-08-28T08:22:27.740Z,20.38
2018-08-28T08:23:27.665Z,20.42
2018-08-28T08:24:27.391Z,20.5
2018-08-28T08:25:27.645Z,20.53
2018-08-28T08:26:27.371Z,20.61
2018-08-28T08:27:27.359Z,20.62
2018-08-28T08:28:27.412Z,20.68
2018-08-28T08:29:27.606Z,20.64
2018-08-28T08:30:27.342Z,20.68
2018-08-28T08:31:27.580Z,20.77
2018-08-28T08:32:27.317Z,20.72
2018-08-28T08:33:27.578Z,20.66
2018-08-28T08:34:27.560Z,20.8
2018-08-28T08:35:27.875Z,20.8
2018-08-28T08:36:27.273Z,20.8
2018-08-28T08:37:27.521Z,20.79
2018-08-28T08:38:27.274Z,20.87
2018-08-28T08:39:27.518Z,20.86
2018-08-28T08:40:27.243Z,20.95
2018-08-28T08:41:27.497Z,20.93
2018-08-28T08:42:27.227Z,21.04
2018-08-28T08:43:27.203Z,21.06
2018-08-28T08:44:27.203Z,21.11
2018-08-28T08:45:27.192Z,21.23
2018-08-28T08:46:27.181Z,21.21
2018-08-28T08:47:26.916Z,21.26
2018-08-28T08:48:27.436Z,21.26
2018-08-28T08:49:27.433Z,21.27
2018-08-28T08:50:26.887Z,21.29
2018-08-28T08:51:26.880Z,21.3
2018-08-28T08:52:27.398Z,21.23
2018-08-28T08:53:27.126Z,21.3
2018-08-28T08:54:26.850Z,21.24
2018-08-28T08:55:27.363Z,21.27
2018-08-28T08:56:27.102Z,21.39
2018-08-28T08:57:27.360Z,21.38
2018-08-28T08:58:26.818Z,21.48
2018-08-28T08:59:27.071Z,21.44
2018-08-28T09:00:27.072Z,21.51
2018-08-28T09:01:27.054Z,21.54
2018-08-28T09:02:26.986Z,21.5
2018-08-28T09:03:26.776Z,21.53
2018-08-28T09:04:27.037Z,21.66
2018-08-28T09:05:27.288Z,21.61
2018-08-28T09:06:27.277Z,21.71
2018-08-28T09:07:27.005Z,21.81
2018-08-28T09:08:27.264Z,21.95
2018-08-28T09:09:27.265Z,21.98
2018-08-28T09:10:26.988Z,22.01
2018-08-28T09:11:26.970Z,22.02
2018-08-28T09:12:27.236Z,22.02
2018-08-28T09:13:27.424Z,21.95
2018-08-28T09:14:26.949Z,22.1
2018-08-28T09:15:26.940Z,22.04
2018-08-28T09:16:26.930Z,22.1
2018-08-28T09:17:26.940Z,22.09
2018-08-28T09:18:27.177Z,22.23
2018-08-28T09:19:27.477Z,22.23
2018-08-28T09:20:26.642Z,22.19
2018-08-28T09:21:26.640Z,22.2
2018-08-28T09:22:27.154Z,22.22
2018-08-28T09:23:26.879Z,22.19
2018-08-28T09:24:27.133Z,22.12
2018-08-28T09:25:27.131Z,22.09
2018-08-28T09:26:26.595Z,22.06
2018-08-28T09:27:27.108Z,21.95
2018-08-28T09:28:27.098Z,21.97
2018-08-28T09:29:26.844Z,21.94
2018-08-28T09:30:26.832Z,22.01
2018-08-28T09:31:26.856Z,21.99
2018-08-28T09:32:26.683Z,22.02
2018-08-28T09:33:26.804Z,22.09
2018-08-28T09:34:27.055Z,22.1
2018-08-28T09:35:26.783Z,22.16
2018-08-28T09:36:26.778Z,22.2
2018-08-28T09:37:26.779Z,22.2
2018-08-28T09:38:26.952Z,22.2
2018-08-28T09:39:26.751Z,22.06
2018-08-28T09:40:26.759Z,22.1
2018-08-28T09:41:27.003Z,22.09
2018-08-28T09:42:27.007Z,22.16
2018-08-28T09:43:26.462Z,22.13
2018-08-28T09:44:26.721Z,22.19
2018-08-28T09:45:26.973Z,22.34
2018-08-28T09:46:26.973Z,22.19
2018-08-28T09:47:26.954Z,22.17
2018-08-28T09:48:27.275Z,22.14
2018-08-28T09:49:26.678Z,22.23
2018-08-28T09:50:26.941Z,22.27
2018-08-28T09:51:26.667Z,22.28
2018-08-28T09:52:26.918Z,22.28
2018-08-28T09:53:26.652Z,22.29
2018-08-28T09:54:26.639Z,22.32
2018-08-28T09:55:26.640Z,22.29
2018-08-28T09:56:26.974Z,22.31
2018-08-28T09:57:26.885Z,22.27
2018-08-28T09:58:26.900Z,22.28
2018-08-28T09:59:26.341Z,22.34
2018-08-28T10:00:26.591Z,22.2
2018-08-28T10:01:26.326Z,22.13
2018-08-28T10:02:26.855Z,22.12
2018-08-28T10:03:26.840Z,22.1
2018-08-28T10:04:26.304Z,22.06
2018-08-28T10:05:26.561Z,22.13
2018-08-28T10:06:26.817Z,22.09
2018-08-28T10:07:26.815Z,22.19
2018-08-28T10:08:26.533Z,22.09
2018-08-28T10:09:26.523Z,22.16
2018-08-28T10:10:26.529Z,22.12
2018-08-28T10:11:26.514Z,22.09
2018-08-28T10:12:26.501Z,22.1
2018-08-28T10:13:26.229Z,22.23
2018-08-28T10:14:26.492Z,22.27
2018-08-28T10:15:26.755Z,22.16
2018-08-28T10:16:26.213Z,22.28
2018-08-28T10:17:27.038Z,22.29
2018-08-28T10:18:26.466Z,22.31
2018-08-28T10:19:26.180Z,22.34
2018-08-28T10:20:26.177Z,22.34
2018-08-28T10:21:26.434Z,22.29
2018-08-28T10:22:26.162Z,22.43
2018-08-28T10:23:26.690Z,22.39
2018-08-28T10:24:26.698Z,22.49
2018-08-28T10:25:26.664Z,22.47
2018-08-28T10:26:26.396Z,22.59
2018-08-28T10:27:26.384Z,22.67
2018-08-28T10:28:26.376Z,22.62
2018-08-28T10:29:26.376Z,22.43
2018-08-28T10:30:26.628Z,22.47
2018-08-28T10:31:26.355Z,22.43
2018-08-28T10:32:26.619Z,22.47
2018-08-28T10:33:26.074Z,22.43
2018-08-28T10:34:26.594Z,22.41
2018-08-28T10:35:26.600Z,22.39
2018-08-28T10:36:26.324Z,22.46
2018-08-28T10:37:26.320Z,22.5
2018-08-28T10:38:26.064Z,22.52
2018-08-28T10:39:26.575Z,22.52
2018-08-28T10:40:26.549Z,22.47
2018-08-28T10:41:26.545Z,22.59
2018-08-28T10:42:26.275Z,22.64
2018-08-28T10:43:26.537Z,22.59
2018-08-28T10:44:26.255Z,22.54
2018-08-28T10:45:26.294Z,22.62
2018-08-28T10:46:26.747Z,22.6
2018-08-28T10:47:26.239Z,22.74
2018-08-28T10:48:25.958Z,22.83
2018-08-28T10:49:26.218Z,22.93
2018-08-28T10:50:26.505Z,22.96
2018-08-28T10:51:26.466Z,23.15
2018-08-28T10:52:26.200Z,23.19
2018-08-28T10:53:26.193Z,23.24
2018-08-28T10:54:26.184Z,23.42
2018-08-28T10:55:26.169Z,23.45
2018-08-28T10:56:26.169Z,23.47
2018-08-28T10:57:26.433Z,23.61
2018-08-28T10:58:26.166Z,23.79
2018-08-28T10:59:26.411Z,24
2018-08-28T11:00:26.146Z,24.01
2018-08-28T11:01:26.142Z,24.16
2018-08-28T11:02:26.596Z,24.22
2018-08-28T11:03:26.125Z,24.34
2018-08-28T11:04:26.557Z,24.38
2018-08-28T11:05:26.116Z,24.38
2018-08-28T11:06:26.374Z,24.38
2018-08-28T11:07:26.105Z,24.52
2018-08-28T11:08:25.830Z,24.54
2018-08-28T11:09:25.821Z,24.53
2018-08-28T11:10:26.083Z,24.44
2018-08-28T11:11:26.108Z,24.54
2018-08-28T11:12:26.087Z,24.54
2018-08-28T11:13:26.341Z,24.59
2018-08-28T11:14:26.061Z,24.67
2018-08-28T11:15:25.789Z,24.87
2018-08-28T11:16:26.318Z,25
2018-08-28T11:17:26.052Z,25.07
2018-08-28T11:18:25.776Z,25.34
2018-08-28T11:19:26.053Z,25.61
2018-08-28T11:20:26.052Z,25.97
2018-08-28T11:21:26.053Z,26.36
2018-08-28T11:22:26.502Z,26.47
2018-08-28T11:23:26.043Z,26.68
2018-08-28T11:24:26.042Z,26.74
2018-08-28T11:25:26.032Z,26.91
2018-08-28T11:26:26.106Z,26.87
2018-08-28T11:27:26.093Z,27.11
2018-08-28T11:28:26.106Z,27.47
2018-08-28T11:29:25.763Z,27.59
2018-08-28T11:30:26.046Z,27.66
2018-08-28T11:31:26.209Z,27.79
2018-08-28T11:32:26.299Z,27.94
2018-08-28T11:33:25.763Z,28.14
2018-08-28T11:34:25.762Z,28.36
2018-08-28T11:35:26.034Z,28.59
2018-08-28T11:36:26.297Z,28.85
2018-08-28T11:37:26.029Z,29.01
2018-08-28T11:38:26.281Z,29.22
2018-08-28T11:39:26.324Z,29.5
2018-08-28T11:40:26.301Z,29.7
2018-08-28T11:41:26.039Z,29.81
2018-08-28T11:42:26.308Z,30.09
2018-08-28T11:43:26.047Z,30.14
2018-08-28T11:44:26.041Z,30.3
2018-08-28T11:45:26.049Z,30.19
2018-08-28T11:46:26.052Z,30.49
2018-08-28T11:47:26.069Z,30.59
2018-08-28T11:48:26.320Z,30.83
2018-08-28T11:49:26.065Z,31.11
2018-08-28T11:50:26.354Z,31.36
2018-08-28T11:51:26.345Z,31.33
2018-08-28T11:52:26.354Z,31.38
2018-08-28T11:53:26.332Z,31.58
2018-08-28T11:54:25.821Z,31.64
2018-08-28T11:55:26.098Z,31.72
2018-08-28T11:56:26.103Z,31.88
2018-08-28T11:57:26.104Z,31.99
2018-08-28T11:58:26.106Z,32.02
2018-08-28T11:59:25.845Z,32
2018-08-28T12:00:26.439Z,31.84
2018-08-28T12:01:26.394Z,32.03
2018-08-28T12:02:26.417Z,31.88
2018-08-28T12:03:26.399Z,32.03
2018-08-28T12:04:26.401Z,31.64
2018-08-28T12:05:25.935Z,31.3
2018-08-28T12:06:26.158Z,30.96
2018-08-28T12:07:26.759Z,30.36
2018-08-28T12:08:26.431Z,29.77
2018-08-28T12:09:26.501Z,29.56
2018-08-28T12:10:26.177Z,29.11
2018-08-28T12:11:26.186Z,28.85
2018-08-28T12:12:26.186Z,28.53
2018-08-28T12:13:26.180Z,28.43
2018-08-28T12:14:26.180Z,28.29
2018-08-28T12:15:26.456Z,28.07
2018-08-28T12:16:26.193Z,27.96
2018-08-28T12:17:26.457Z,27.91
2018-08-28T12:18:26.466Z,27.89
2018-08-28T12:19:26.191Z,27.77
2018-08-28T12:20:26.622Z,27.69
2018-08-28T12:21:25.942Z,27.67
2018-08-28T12:22:26.478Z,27.67
2018-08-28T12:23:25.928Z,27.67
2018-08-28T12:24:26.455Z,28.06
2018-08-28T12:25:26.208Z,28.56
2018-08-28T12:26:26.197Z,28.59
2018-08-28T12:27:26.198Z,28.7
2018-08-28T12:28:26.466Z,28.65
2018-08-28T12:29:26.234Z,28.41
2018-08-28T12:30:25.928Z,28.32
2018-08-28T12:31:26.457Z,28.13
2018-08-28T12:32:26.456Z,28.01
2018-08-28T12:33:26.212Z,27.86
2018-08-28T12:34:26.449Z,27.66
2018-08-28T12:35:26.471Z,27.43
2018-08-28T12:36:26.203Z,27.29
2018-08-28T12:37:26.270Z,27.32
2018-08-28T12:38:26.446Z,27.35
2018-08-28T12:39:26.455Z,27.62
2018-08-28T12:40:26.188Z,27.88
2018-08-28T12:41:25.917Z,27.82
2018-08-28T12:42:26.438Z,27.95
2018-08-28T12:43:26.194Z,27.95
2018-08-28T12:44:26.184Z,28.14
2018-08-28T12:45:26.185Z,28.36
2018-08-28T12:46:26.439Z,28.29
2018-08-28T12:47:26.453Z,28.19
2018-08-28T12:48:26.440Z,28.03
2018-08-28T12:49:25.903Z,27.92
2018-08-28T12:50:25.913Z,27.98
2018-08-28T12:51:26.557Z,27.96
2018-08-28T12:52:26.170Z,27.85
2018-08-28T12:53:26.176Z,27.62
2018-08-28T12:54:26.177Z,27.66
2018-08-28T12:55:26.176Z,27.48